createdAt,value
2018-08-16T00:00:55.039Z,24.06
2018-08-16T00:02:30.935Z,24.04
2018-08-16T00:04:06.548Z,23.87
2018-08-16T00:05:43.421Z,23.58
2018-08-16T00:07:20.312Z,23.49
2018-08-16T00:08:55.628Z,23.47
2018-08-16T00:10:31.019Z,23.16
2018-08-16T00:12:06.365Z,23.07
2018-08-16T00:13:41.644Z,23.13
2018-08-16T00:15:24.489Z,23.14
2018-08-16T00:17:00.276Z,23.19
2018-08-16T00:18:37.397Z,23.29
2018-08-16T00:20:14.972Z,23.25
2018-08-16T00:21:50.768Z,23.45
2018-08-16T00:23:26.188Z,23.38
2018-08-16T00:25:02.042Z,23.27
2018-08-16T00:26:37.532Z,23.30
2018-08-16T00:28:13.076Z,23.37
2018-08-16T00:29:48.385Z,23.33
2018-08-16T00:31:24.107Z,23.16
2018-08-16T00:33:00.328Z,22.89
2018-08-16T00:34:37.659Z,22.85
2018-08-16T00:36:15.440Z,22.81
2018-08-16T00:37:51.160Z,22.94
2018-08-16T00:39:29.186Z,22.90
2018-08-16T00:41:05.767Z,22.82
2018-08-16T00:42:42.578Z,22.77
2018-08-16T00:44:20.314Z,22.76
2018-08-16T00:45:55.909Z,22.85
2018-08-16T00:47:33.225Z,22.78
2018-08-16T00:49:14.884Z,22.63
2018-08-16T00:50:52.287Z,22.57
2018-08-16T00:52:31.016Z,22.48
2018-08-16T00:54:07.597Z,22.53
2018-08-16T00:55:43.323Z,22.61
2018-08-16T00:57:21.412Z,22.66
2018-08-16T00:58:56.780Z,22.57
2018-08-16T01:00:33.053Z,22.43
2018-08-16T01:02:08.637Z,22.45
2018-08-16T01:03:51.354Z,22.49
2018-08-16T01:05:26.887Z,22.51
2018-08-16T01:07:02.405Z,22.58
2018-08-16T01:08:38.902Z,22.60
2018-08-16T01:10:15.326Z,22.54
2018-08-16T01:11:53.142Z,22.49
2018-08-16T01:13:29.183Z,22.52
2018-08-16T01:15:07.685Z,22.68
2018-08-16T01:16:44.586Z,22.67
2018-08-16T01:18:20.896Z,22.68
2018-08-16T01:19:56.590Z,22.76
2018-08-16T01:21:39.117Z,22.83
2018-08-16T01:23:17.075Z,22.81
2018-08-16T01:24:54.441Z,22.75
2018-08-16T01:26:31.391Z,22.72
2018-08-16T01:28:07.321Z,22.69
2018-08-16T01:33:47.173Z,22.55
2018-08-16T01:35:22.996Z,22.54
2018-08-16T01:37:01.276Z,22.61
2018-08-16T01:38:38.299Z,22.66
2018-08-16T01:40:13.609Z,22.71
2018-08-16T01:41:48.964Z,22.64
2018-08-16T01:43:24.366Z,22.44
2018-08-16T01:45:00.875Z,22.27
2018-08-16T01:46:37.079Z,22.15
2018-08-16T01:48:13.107Z,22.21
2018-08-16T01:49:48.603Z,22.35
2018-08-16T01:51:24.470Z,22.19
2018-08-16T01:53:02.151Z,22.15
2018-08-16T01:54:38.728Z,22.01
2018-08-16T01:56:14.508Z,21.95
2018-08-16T01:57:50.255Z,21.99
2018-08-16T02:01:00.364Z,22.11
2018-08-16T02:02:36.251Z,22.18
2018-08-16T02:04:11.559Z,22.20
2018-08-16T02:05:47.388Z,22.23
2018-08-16T02:07:22.662Z,22.35
2018-08-16T02:09:00.884Z,22.34
2018-08-16T02:10:36.103Z,22.32
2018-08-16T02:12:11.858Z,22.26
2018-08-16T02:13:47.846Z,22.30
2018-08-16T02:15:23.513Z,22.32
2018-08-16T02:16:58.787Z,22.02
2018-08-16T02:18:35.727Z,21.75
2018-08-16T02:20:13.968Z,21.33
2018-08-16T02:21:49.293Z,20.95
2018-08-16T02:23:24.590Z,20.62
2018-08-16T02:25:00.684Z,20.32
2018-08-16T02:26:36.061Z,20.16
2018-08-16T02:28:12.766Z,19.92
2018-08-16T02:29:48.505Z,19.73
2018-08-16T02:31:26.113Z,19.57
2018-08-16T02:33:01.574Z,19.40
2018-08-16T02:34:36.838Z,19.23
2018-08-16T02:36:12.400Z,19.15
2018-08-16T02:37:49.049Z,19.10
2018-08-16T02:39:26.658Z,19.06
2018-08-16T02:41:02.569Z,19.08
2018-08-16T02:42:38.843Z,19.11
2018-08-16T02:44:15.433Z,19.15
2018-08-16T02:45:52.604Z,19.24
2018-08-16T02:47:28.553Z,19.34
2018-08-16T02:49:06.872Z,19.54
2018-08-16T02:50:44.293Z,19.57
2018-08-16T02:52:21.122Z,19.44
2018-08-16T02:53:57.836Z,19.29
2018-08-16T02:55:36.701Z,19.14
2018-08-16T02:57:13.491Z,19.14
2018-08-16T02:58:48.990Z,19.16
2018-08-16T03:00:24.607Z,19.12
2018-08-16T03:02:00.485Z,19.07
2018-08-16T03:03:36.003Z,19.10
2018-08-16T03:05:11.337Z,19.04
2018-08-16T03:06:46.561Z,19.16
2018-08-16T03:08:22.383Z,19.29
2018-08-16T03:09:58.255Z,19.20
2018-08-16T03:11:33.461Z,19.04
2018-08-16T03:13:08.770Z,18.88
2018-08-16T03:14:44.011Z,18.76
2018-08-16T03:16:19.747Z,18.68
2018-08-16T03:17:54.943Z,18.60
2018-08-16T03:19:30.194Z,18.56
2018-08-16T03:21:05.514Z,18.57
2018-08-16T03:22:41.359Z,18.60
2018-08-16T03:24:16.761Z,18.58
2018-08-16T03:25:51.941Z,18.60
2018-08-16T03:27:27.139Z,18.55
2018-08-16T03:29:02.832Z,18.56
2018-08-16T03:30:38.014Z,18.60
2018-08-16T03:32:13.205Z,18.75
2018-08-16T03:33:48.454Z,18.78
2018-08-16T03:35:24.380Z,18.73
2018-08-16T03:36:59.675Z,18.65
2018-08-16T03:38:35.880Z,18.59
2018-08-16T03:40:11.164Z,18.48
2018-08-16T03:41:46.800Z,18.41
2018-08-16T03:43:21.921Z,18.38
2018-08-16T03:44:57.163Z,18.44
2018-08-16T03:46:32.482Z,18.50
2018-08-16T03:48:12.489Z,18.49
2018-08-16T03:49:47.664Z,18.43
2018-08-16T03:51:29.557Z,18.34
2018-08-16T03:53:04.783Z,18.22
2018-08-16T03:54:40.605Z,18.14
2018-08-16T03:56:16.754Z,18.06
2018-08-16T03:57:51.985Z,18.00
2018-08-16T03:59:27.302Z,17.99
2018-08-16T04:01:02.968Z,18.01
2018-08-16T04:02:38.238Z,17.99
2018-08-16T04:04:14.372Z,18.03
2018-08-16T04:05:50.200Z,18.09
2018-08-16T04:07:26.110Z,18.20
2018-08-16T04:09:02.805Z,18.23
2018-08-16T04:10:38.505Z,18.31
2018-08-16T04:12:13.697Z,18.28
2018-08-16T04:13:49.440Z,18.28
2018-08-16T04:15:26.268Z,18.40
2018-08-16T04:17:01.539Z,18.46
2018-08-16T04:18:38.749Z,18.38
2018-08-16T04:20:13.978Z,18.29
2018-08-16T04:21:49.073Z,18.21
2018-08-16T04:23:24.293Z,18.23
2018-08-16T04:24:59.590Z,18.29
2018-08-16T04:26:35.144Z,18.43
2018-08-16T04:28:10.419Z,18.82
2018-08-16T04:29:47.250Z,18.68
2018-08-16T04:31:22.471Z,18.66
2018-08-16T04:32:58.171Z,18.63
2018-08-16T04:34:33.376Z,18.47
2018-08-16T04:36:09.547Z,18.40
2018-08-16T04:37:45.365Z,18.30
2018-08-16T04:39:23.180Z,18.27
2018-08-16T04:40:58.467Z,18.32
2018-08-16T04:42:33.709Z,18.43
2018-08-16T04:44:09.512Z,18.52
2018-08-16T04:45:45.210Z,18.67
2018-08-16T04:47:20.317Z,18.73
2018-08-16T04:48:55.484Z,18.80
2018-08-16T04:50:30.815Z,18.98
2018-08-16T04:52:06.769Z,19.11
2018-08-16T04:53:42.012Z,19.13
2018-08-16T04:55:17.267Z,19.11
2018-08-16T04:56:52.444Z,18.98
2018-08-16T04:58:28.146Z,18.89
2018-08-16T05:00:03.825Z,18.89
2018-08-16T05:01:38.973Z,18.87
2018-08-16T05:03:14.216Z,18.92
2018-08-16T05:04:49.663Z,19.10
2018-08-16T05:06:25.605Z,19.30
2018-08-16T05:08:01.453Z,19.54
2018-08-16T05:09:38.310Z,19.70
2018-08-16T05:11:14.057Z,19.85
2018-08-16T05:12:49.181Z,19.87
2018-08-16T05:14:27.623Z,19.98
2018-08-16T05:16:03.967Z,20.12
2018-08-16T05:17:39.657Z,20.11
2018-08-16T05:19:15.194Z,20.00
2018-08-16T05:20:50.406Z,19.81
2018-08-16T05:22:26.365Z,19.69
2018-08-16T05:24:03.550Z,19.74
2018-08-16T05:25:40.554Z,19.76
2018-08-16T05:27:15.767Z,19.90
2018-08-16T05:28:50.994Z,20.07
2018-08-16T05:30:28.084Z,20.20
2018-08-16T05:32:05.260Z,20.41
2018-08-16T05:33:40.502Z,20.67
2018-08-16T05:35:16.509Z,20.87
2018-08-16T05:36:54.001Z,21.08
2018-08-16T05:38:30.962Z,21.23
2018-08-16T05:40:09.533Z,21.45
2018-08-16T05:41:44.887Z,21.70
2018-08-16T05:43:20.731Z,21.81
2018-08-16T05:44:55.964Z,21.81
2018-08-16T05:46:31.331Z,22.19
2018-08-16T05:48:06.641Z,22.50
2018-08-16T05:49:42.268Z,22.78
2018-08-16T05:51:17.849Z,23.26
2018-08-16T05:52:56.596Z,23.34
2018-08-16T05:54:33.772Z,23.37
2018-08-16T05:56:09.008Z,23.77
2018-08-16T05:57:44.807Z,24.08
2018-08-16T05:59:21.701Z,23.88
2018-08-16T06:00:56.961Z,23.66
2018-08-16T06:02:32.495Z,23.51
2018-08-16T06:04:07.874Z,23.69
2018-08-16T06:05:43.827Z,23.96
2018-08-16T06:07:19.939Z,23.88
2018-08-16T06:08:57.078Z,23.73
2018-08-16T06:10:32.398Z,23.87
2018-08-16T06:12:08.593Z,23.62
2018-08-16T06:13:43.822Z,23.45
2018-08-16T06:15:20.731Z,23.55
2018-08-16T06:16:57.349Z,23.25
2018-08-16T06:18:32.691Z,23.19
2018-08-16T06:20:11.224Z,22.98
2018-08-16T06:21:46.787Z,23.33
2018-08-16T06:23:22.013Z,23.67
2018-08-16T06:24:57.304Z,23.56
2018-08-16T06:26:32.503Z,23.85
2018-08-16T06:28:08.408Z,24.23
2018-08-16T06:29:43.866Z,24.39
2018-08-16T06:31:20.049Z,24.32
2018-08-16T06:32:55.342Z,23.92
2018-08-16T06:34:32.516Z,23.46
2018-08-16T06:36:07.919Z,23.63
2018-08-16T06:37:46.171Z,23.70
2018-08-16T06:39:21.406Z,23.78
2018-08-16T06:40:57.131Z,23.60
2018-08-16T06:42:32.415Z,23.13
2018-08-16T06:44:07.725Z,23.08
2018-08-16T06:45:43.000Z,22.96
2018-08-16T06:47:18.630Z,22.96
2018-08-16T06:48:53.959Z,23.62
2018-08-16T06:50:29.391Z,23.94
2018-08-16T06:52:07.578Z,23.79
2018-08-16T06:53:43.290Z,23.68
2018-08-16T06:55:19.666Z,23.54
2018-08-16T06:56:55.771Z,23.56
2018-08-16T06:58:32.835Z,23.52
2018-08-16T07:00:11.067Z,23.73
2018-08-16T07:01:47.178Z,23.72
2018-08-16T07:03:22.408Z,23.70
2018-08-16T07:04:58.741Z,24.13
2018-08-16T07:06:34.674Z,24.39
2018-08-16T07:08:10.929Z,24.17
2018-08-16T07:09:46.423Z,23.92
2018-08-16T07:11:22.487Z,23.78
2018-08-16T07:12:59.132Z,24.10
2018-08-16T07:14:36.228Z,24.58
2018-08-16T07:16:11.761Z,24.71
2018-08-16T07:17:48.352Z,24.29
2018-08-16T07:19:24.166Z,24.49
2018-08-16T07:21:00.465Z,24.88
2018-08-16T07:22:35.701Z,24.94
2018-08-16T07:24:10.934Z,25.18
2018-08-16T07:25:46.674Z,25.34
2018-08-16T07:27:22.211Z,25.57
2018-08-16T07:28:59.267Z,25.64
2018-08-16T07:30:37.829Z,25.72
2018-08-16T07:32:13.023Z,25.79
2018-08-16T07:33:48.431Z,25.68
2018-08-16T07:35:23.657Z,25.60
2018-08-16T07:36:58.905Z,25.55
2018-08-16T07:38:34.667Z,25.44
2018-08-16T07:40:11.194Z,25.35
2018-08-16T07:41:46.523Z,25.43
2018-08-16T07:43:21.835Z,25.40
2018-08-16T07:44:57.510Z,25.21
2018-08-16T07:46:34.277Z,25.11
2018-08-16T07:48:10.332Z,24.74
2018-08-16T07:49:46.281Z,24.97
2018-08-16T07:51:21.939Z,24.88
2018-08-16T07:53:00.465Z,25.13
2018-08-16T07:54:35.701Z,24.85
2018-08-16T07:56:10.939Z,24.61
2018-08-16T07:57:47.531Z,24.63
2018-08-16T07:59:23.556Z,24.88
2018-08-16T08:00:59.522Z,25.41
2018-08-16T08:02:34.761Z,25.82
2018-08-16T08:04:10.462Z,25.91
2018-08-16T08:05:45.681Z,25.97
2018-08-16T08:07:21.551Z,26.05
2018-08-16T08:08:58.677Z,25.92
2018-08-16T08:10:34.328Z,25.87
2018-08-16T08:12:09.824Z,25.60
2018-08-16T08:13:45.320Z,25.20
2018-08-16T08:15:20.600Z,25.56
2018-08-16T08:16:57.177Z,26.03
2018-08-16T08:18:32.620Z,26.43
2018-08-16T08:20:15.364Z,26.28
2018-08-16T08:21:50.760Z,26.21
2018-08-16T08:23:27.277Z,26.40
2018-08-16T08:25:02.597Z,26.72
2018-08-16T08:26:39.202Z,26.97
2018-08-16T08:28:14.462Z,27.09
2018-08-16T08:29:50.189Z,27.26
2018-08-16T08:31:26.230Z,27.34
2018-08-16T08:33:03.217Z,27.37
2018-08-16T08:34:39.352Z,27.35
2018-08-16T08:38:26.266Z,27.10
2018-08-16T08:40:01.714Z,26.59
2018-08-16T08:41:38.736Z,26.72
2018-08-16T08:43:29.346Z,26.85
2018-08-16T08:45:05.523Z,26.97
2018-08-16T08:46:41.858Z,27.10
2018-08-16T08:48:17.194Z,27.23
2018-08-16T08:49:52.453Z,27.40
2018-08-16T08:51:28.530Z,27.60
2018-08-16T08:53:20.308Z,27.74
2018-08-16T08:55:12.037Z,27.59
2018-08-16T08:57:04.139Z,27.15
2018-08-16T08:58:54.925Z,27.12
2018-08-16T09:00:30.263Z,27.06
2018-08-16T09:02:06.331Z,27.01
2018-08-16T09:03:43.334Z,26.56
2018-08-16T09:05:22.327Z,26.95
2018-08-16T09:06:58.245Z,27.17
2018-08-16T09:08:36.563Z,27.38
2018-08-16T09:11:25.971Z,27.18
2018-08-16T09:13:17.789Z,27.27
2018-08-16T09:15:43.170Z,27.50
2018-08-16T09:17:22.511Z,27.63
2018-08-16T09:18:58.049Z,27.70
2018-08-16T09:20:34.780Z,27.67
2018-08-16T09:22:10.174Z,27.11
2018-08-16T09:23:46.821Z,26.95
2018-08-16T09:25:22.048Z,26.92
2018-08-16T09:26:57.288Z,26.75
2018-08-16T09:28:32.706Z,26.58
2018-08-16T09:30:26.815Z,26.89
2018-08-16T09:32:18.693Z,26.77
2018-08-16T09:34:38.206Z,27.07
2018-08-16T09:36:14.523Z,27.81
2018-08-16T09:37:49.740Z,28.08
2018-08-16T09:39:26.307Z,28.05
2018-08-16T09:41:02.915Z,27.82
2018-08-16T09:42:39.173Z,27.59
2018-08-16T09:44:14.466Z,26.65
2018-08-16T09:47:10.165Z,26.49
2018-08-16T09:48:47.250Z,27.07
2018-08-16T09:50:22.532Z,27.38
2018-08-16T09:51:58.995Z,27.92
2018-08-16T09:53:34.181Z,27.98
2018-08-16T09:55:10.584Z,28.22
2018-08-16T09:56:46.638Z,28.30
2018-08-16T09:58:21.841Z,28.07
2018-08-16T09:59:59.483Z,27.60
2018-08-16T10:01:36.782Z,27.23
2018-08-16T10:03:12.202Z,27.05
2018-08-16T10:04:49.555Z,26.97
2018-08-16T10:06:26.301Z,26.50
2018-08-16T10:08:04.426Z,26.69
2018-08-16T10:09:39.806Z,27.24
2018-08-16T10:11:16.258Z,27.53
2018-08-16T10:12:52.246Z,27.46
2018-08-16T10:14:30.054Z,27.41
2018-08-16T10:16:09.838Z,27.58
2018-08-16T10:17:46.707Z,27.45
2018-08-16T10:19:23.718Z,27.83
2018-08-16T10:21:01.198Z,28.12
2018-08-16T10:22:38.103Z,27.37
2018-08-16T10:24:13.511Z,27.03
2018-08-16T10:25:49.773Z,27.29
2018-08-16T10:27:28.982Z,27.73
2018-08-16T10:29:05.887Z,27.71
2018-08-16T10:30:41.214Z,27.23
2018-08-16T10:32:17.199Z,26.99
2018-08-16T10:33:52.519Z,27.00
2018-08-16T10:35:30.991Z,27.31
2018-08-16T10:37:06.562Z,27.52
2018-08-16T10:38:43.315Z,27.82
2018-08-16T10:40:19.525Z,27.77
2018-08-16T10:41:57.061Z,27.81
2018-08-16T10:43:49.514Z,27.74
2018-08-16T10:45:26.738Z,27.70
2018-08-16T10:47:01.970Z,27.79
2018-08-16T10:48:38.402Z,27.96
2018-08-16T10:50:14.511Z,27.38
2018-08-16T10:51:54.599Z,27.31
2018-08-16T10:53:30.397Z,27.76
2018-08-16T10:55:06.516Z,28.05
2018-08-16T10:56:45.118Z,27.80
2018-08-16T10:58:24.102Z,27.98
2018-08-16T11:00:00.628Z,28.10
2018-08-16T11:01:36.045Z,28.26
2018-08-16T11:03:11.574Z,28.30
2018-08-16T11:04:50.958Z,28.39
2018-08-16T11:06:26.335Z,28.62
2018-08-16T11:08:01.527Z,28.66
2018-08-16T11:09:36.820Z,28.67
2018-08-16T11:11:13.459Z,28.81
2018-08-16T11:12:49.336Z,28.62
2018-08-16T11:14:25.201Z,27.91
2018-08-16T11:16:00.432Z,27.21
2018-08-16T11:17:36.192Z,26.93
2018-08-16T11:19:11.717Z,26.67
2018-08-16T11:20:49.533Z,26.43
2018-08-16T11:24:34.586Z,26.29
2018-08-16T11:26:10.543Z,26.67
2018-08-16T11:27:47.283Z,26.96
2018-08-16T11:29:22.895Z,27.29
2018-08-16T11:30:58.633Z,27.80
2018-08-16T11:32:35.460Z,28.26
2018-08-16T11:34:10.772Z,28.44
2018-08-16T11:35:46.105Z,28.52
2018-08-16T11:37:22.724Z,28.48
2018-08-16T11:38:57.996Z,28.46
2018-08-16T11:40:33.963Z,28.79
2018-08-16T11:42:11.409Z,29.06
2018-08-16T11:43:50.041Z,29.16
2018-08-16T11:45:29.183Z,29.38
2018-08-16T11:47:04.519Z,29.39
2018-08-16T11:48:40.365Z,29.58
2018-08-16T11:50:16.562Z,29.79
2018-08-16T11:51:53.879Z,29.69
2018-08-16T11:53:33.528Z,29.00
2018-08-16T11:55:15.926Z,28.91
2018-08-16T11:56:51.566Z,28.93
2018-08-16T11:58:28.508Z,28.39
2018-08-16T12:00:03.949Z,28.18
2018-08-16T12:01:44.566Z,28.48
2018-08-16T12:03:20.341Z,28.17
2018-08-16T12:05:04.306Z,28.72
2018-08-16T12:06:40.419Z,29.14
2018-08-16T12:08:20.818Z,29.36
2018-08-16T12:09:59.484Z,29.30
2018-08-16T12:11:49.274Z,28.95
2018-08-16T12:13:24.539Z,28.66
2018-08-16T12:14:59.779Z,28.94
2018-08-16T12:16:36.543Z,29.06
2018-08-16T12:18:15.793Z,29.20
2018-08-16T12:19:55.570Z,28.98
2018-08-16T12:21:33.202Z,28.53
2018-08-16T12:23:10.836Z,28.02
2018-08-16T12:24:46.556Z,28.04
2018-08-16T12:26:23.836Z,28.16
2018-08-16T12:28:02.650Z,28.48
2018-08-16T12:31:27.355Z,29.37
2018-08-16T12:33:06.650Z,29.41
2018-08-16T12:34:44.194Z,29.72
2018-08-16T12:36:22.506Z,29.80
2018-08-16T12:38:01.169Z,29.77
2018-08-16T12:39:38.344Z,29.72
2018-08-16T12:41:16.682Z,29.59
2018-08-16T12:42:53.515Z,29.49
2018-08-16T12:44:30.555Z,28.79
2018-08-16T12:46:08.615Z,28.27
2018-08-16T12:47:47.226Z,28.76
2018-08-16T12:49:25.226Z,28.59
2018-08-16T12:51:04.174Z,27.86
2018-08-16T12:52:48.221Z,27.79
2018-08-16T12:54:33.310Z,28.21
2018-08-16T12:56:10.236Z,28.57
2018-08-16T12:57:47.530Z,28.95
2018-08-16T12:59:26.703Z,29.42
2018-08-16T13:01:05.785Z,29.61
2018-08-16T13:02:45.253Z,29.76
2018-08-16T13:04:23.482Z,29.83
2018-08-16T13:06:04.455Z,29.85
2018-08-16T13:07:46.424Z,29.94
2018-08-16T13:09:22.527Z,30.03
2018-08-16T13:11:02.563Z,30.00
2018-08-16T13:14:21.134Z,30.22
2018-08-16T13:15:58.531Z,30.30
2018-08-16T13:17:34.528Z,30.32
2018-08-16T13:19:11.356Z,30.59
2018-08-16T13:20:55.604Z,30.61
2018-08-16T13:22:42.055Z,30.55
2018-08-16T13:24:18.506Z,30.28
2018-08-16T13:25:55.525Z,29.64
2018-08-16T13:27:31.659Z,29.42
2018-08-16T13:29:10.014Z,29.55
2018-08-16T13:32:29.186Z,30.58
2018-08-16T13:34:08.468Z,30.83
2018-08-16T13:35:46.594Z,30.79
2018-08-16T13:37:28.250Z,30.61
2018-08-16T13:39:05.417Z,30.46
2018-08-16T13:40:42.197Z,30.38
2018-08-16T13:42:20.685Z,30.37
2018-08-16T13:43:55.933Z,30.34
2018-08-16T13:45:38.813Z,30.68
2018-08-16T13:47:15.465Z,31.05
2018-08-16T13:48:54.573Z,31.26
2018-08-16T13:50:34.581Z,31.12
2018-08-16T13:52:13.249Z,31.29
2018-08-16T13:53:51.362Z,31.55
2018-08-16T13:55:28.415Z,31.54
2018-08-16T13:57:10.575Z,31.64
2018-08-16T13:58:46.283Z,31.71
2018-08-16T14:00:25.530Z,31.14
2018-08-16T14:02:01.307Z,30.23
2018-08-16T14:03:36.516Z,29.94
2018-08-16T14:05:14.601Z,29.80
2018-08-16T14:06:49.759Z,29.56
2018-08-16T14:08:27.317Z,29.62
2018-08-16T14:10:04.768Z,29.85
2018-08-16T14:11:44.567Z,30.17
2018-08-16T14:13:20.823Z,30.10
2018-08-16T14:14:56.138Z,29.97
2018-08-16T14:16:32.005Z,29.88
2018-08-16T14:18:07.650Z,29.58
2018-08-16T14:19:43.218Z,29.36
2018-08-16T14:21:19.368Z,29.23
2018-08-16T14:27:07.034Z,29.71
2018-08-16T14:28:58.309Z,30.18
2018-08-16T14:32:42.851Z,30.62
2018-08-16T14:34:34.654Z,30.96
2018-08-16T14:37:43.478Z,31.18
2018-08-16T14:39:20.245Z,31.05
2018-08-16T14:40:58.320Z,31.05
2018-08-16T14:42:37.859Z,30.61
2018-08-16T14:44:17.177Z,30.42
2018-08-16T14:45:59.893Z,30.53
2018-08-16T14:47:37.186Z,30.82
2018-08-16T14:49:14.532Z,30.97
2018-08-16T14:51:08.707Z,31.15
2018-08-16T14:52:49.610Z,31.32
2018-08-16T14:54:29.514Z,31.43
2018-08-16T14:56:06.711Z,31.33
2018-08-16T14:57:42.689Z,31.19
2018-08-16T14:59:19.502Z,31.03
2018-08-16T15:00:59.689Z,30.96
2018-08-16T15:02:35.481Z,31.12
2018-08-16T15:05:46.512Z,31.24
2018-08-16T15:07:23.813Z,31.32
2018-08-16T15:09:00.994Z,31.35
2018-08-16T15:10:39.714Z,31.45
2018-08-16T15:12:16.005Z,31.39
2018-08-16T15:13:55.616Z,31.44
2018-08-16T15:15:32.007Z,31.49
2018-08-16T15:17:13.905Z,31.48
2018-08-16T15:18:55.081Z,31.44
2018-08-16T15:20:33.517Z,31.32
2018-08-16T15:22:14.553Z,31.28
2018-08-16T15:23:52.997Z,31.17
2018-08-16T15:25:28.268Z,31.12
2018-08-16T15:27:04.698Z,31.12
2018-08-16T15:28:42.169Z,30.90
2018-08-16T15:30:22.233Z,30.94
2018-08-16T15:31:58.322Z,31.03
2018-08-16T15:33:33.849Z,31.05
2018-08-16T15:35:13.417Z,31.03
2018-08-16T15:36:53.077Z,30.96
2018-08-16T15:38:29.521Z,30.94
2018-08-16T15:40:06.715Z,30.95
2018-08-16T15:41:46.632Z,31.00
2018-08-16T15:43:22.322Z,31.08
2018-08-16T15:44:59.476Z,31.10
2018-08-16T15:46:42.535Z,31.10
2018-08-16T15:48:21.337Z,30.89
2018-08-16T15:49:56.593Z,30.61
2018-08-16T15:51:32.050Z,30.43
2018-08-16T15:53:08.543Z,30.41
2018-08-16T15:54:50.571Z,30.42
2018-08-16T15:56:26.054Z,30.39
2018-08-16T15:58:03.183Z,30.64
2018-08-16T15:59:38.433Z,30.86
2018-08-16T16:01:22.029Z,31.03
2018-08-16T16:03:01.612Z,30.97
2018-08-16T16:04:37.103Z,30.84
2018-08-16T16:06:14.052Z,30.74
2018-08-16T16:07:54.003Z,30.56
2018-08-16T16:09:31.585Z,30.49
2018-08-16T16:11:12.099Z,30.41
2018-08-16T16:12:50.491Z,30.41
2018-08-16T16:14:33.539Z,30.46
2018-08-16T16:16:13.848Z,30.32
2018-08-16T16:17:55.415Z,30.22
2018-08-16T16:19:32.689Z,30.21
2018-08-16T16:21:12.446Z,30.24
2018-08-16T16:22:54.039Z,30.29
2018-08-16T16:24:34.348Z,30.30
2018-08-16T16:26:11.922Z,30.27
2018-08-16T16:27:51.263Z,30.27
2018-08-16T16:29:30.134Z,30.34
2018-08-16T16:31:12.763Z,30.40
2018-08-16T16:37:10.461Z,30.27
2018-08-16T16:38:52.358Z,30.17
2018-08-16T16:40:33.698Z,30.03
2018-08-16T16:42:14.208Z,30.11
2018-08-16T16:44:00.433Z,30.13
2018-08-16T16:45:45.496Z,30.14
2018-08-16T16:47:26.640Z,30.22
2018-08-16T16:49:11.726Z,30.24
2018-08-16T16:50:48.363Z,30.27
2018-08-16T16:52:34.932Z,30.42
2018-08-16T16:54:11.423Z,30.52
2018-08-16T16:55:52.947Z,30.60
2018-08-16T16:57:31.909Z,30.54
2018-08-16T16:59:21.175Z,30.29
2018-08-16T17:01:02.492Z,30.19
2018-08-16T17:02:43.503Z,30.06
2018-08-16T17:04:24.194Z,29.94
2018-08-16T17:06:04.324Z,29.85
2018-08-16T17:07:44.801Z,29.73
2018-08-16T17:09:28.675Z,29.67
2018-08-16T17:11:23.196Z,29.63
2018-08-16T17:13:11.525Z,29.67
2018-08-16T17:14:52.728Z,29.78
2018-08-16T17:16:35.351Z,29.72
2018-08-16T17:18:16.872Z,29.75
2018-08-16T17:19:56.628Z,29.80
2018-08-16T17:21:35.637Z,29.92
2018-08-16T17:23:13.887Z,30.03
2018-08-16T17:24:54.832Z,29.99
2018-08-16T17:26:33.727Z,29.96
2018-08-16T17:28:13.620Z,29.99
2018-08-16T17:30:00.635Z,29.98
2018-08-16T17:31:37.163Z,29.97
2018-08-16T17:33:20.657Z,29.95
2018-08-16T17:34:58.967Z,30.02
2018-08-16T17:36:35.475Z,30.10
2018-08-16T17:40:22.083Z,30.11
2018-08-16T17:42:01.176Z,30.09
2018-08-16T17:43:40.713Z,30.09
2018-08-16T17:45:20.458Z,30.08
2018-08-16T17:46:59.298Z,30.03
2018-08-16T17:48:34.555Z,30.02
2018-08-16T17:50:14.419Z,29.97
2018-08-16T17:51:52.157Z,29.84
2018-08-16T17:53:31.135Z,29.87
2018-08-16T17:55:06.527Z,29.96
2018-08-16T17:56:42.777Z,30.01
2018-08-16T17:58:24.542Z,30.07
2018-08-16T18:00:00.346Z,30.08
2018-08-16T18:01:38.619Z,29.99
2018-08-16T18:03:17.513Z,29.94
2018-08-16T18:04:58.112Z,29.80
2018-08-16T18:09:09.998Z,29.75
2018-08-16T18:10:51.289Z,29.54
2018-08-16T18:12:29.071Z,29.36
2018-08-16T18:14:08.594Z,29.18
2018-08-16T18:15:53.018Z,29.12
2018-08-16T18:17:32.575Z,29.11
2018-08-16T18:19:14.412Z,29.10
2018-08-16T18:20:55.401Z,29.13
2018-08-16T18:22:38.512Z,29.18
2018-08-16T18:24:23.642Z,29.11
2018-08-16T18:26:03.553Z,29.06
2018-08-16T18:27:41.226Z,29.07
2018-08-16T18:29:18.403Z,29.05
2018-08-16T18:31:03.361Z,28.88
2018-08-16T18:32:44.448Z,28.89
2018-08-16T18:34:24.601Z,28.84
2018-08-16T18:36:05.432Z,28.83
2018-08-16T18:37:48.213Z,28.84
2018-08-16T18:39:25.976Z,28.84
2018-08-16T18:41:03.271Z,28.81
2018-08-16T18:42:44.285Z,28.96
2018-08-16T18:44:25.143Z,28.98
2018-08-16T18:46:06.280Z,29.01
2018-08-16T18:47:43.896Z,29.10
2018-08-16T18:49:20.653Z,29.03
2018-08-16T18:50:57.731Z,28.93
2018-08-16T18:52:35.930Z,28.76
2018-08-16T18:54:13.200Z,28.62
2018-08-16T18:55:52.951Z,28.49
2018-08-16T18:57:29.565Z,28.49
2018-08-16T18:59:05.937Z,28.52
2018-08-16T19:00:45.229Z,28.48
2018-08-16T19:02:21.796Z,28.46
2018-08-16T19:03:57.965Z,28.39
2018-08-16T19:05:37.185Z,28.44
2018-08-16T19:07:18.911Z,28.42
2018-08-16T19:08:57.452Z,28.42
2018-08-16T19:10:34.277Z,28.38
2018-08-16T19:12:09.865Z,28.29
2018-08-16T19:13:50.922Z,28.28
2018-08-16T19:15:31.772Z,28.24
2018-08-16T19:17:08.510Z,28.17
2018-08-16T19:18:54.622Z,28.19
2018-08-16T19:20:30.443Z,28.34
2018-08-16T19:22:06.422Z,28.44
2018-08-16T19:23:43.221Z,28.41
2018-08-16T19:25:19.523Z,28.35
2018-08-16T19:26:58.298Z,28.36
2018-08-16T19:28:37.963Z,28.31
2018-08-16T19:30:19.432Z,28.13
2018-08-16T19:31:56.616Z,27.99
2018-08-16T19:33:34.488Z,27.88
2018-08-16T19:35:12.233Z,27.76
2018-08-16T19:36:49.100Z,27.52
2018-08-16T19:38:27.439Z,27.41
2018-08-16T19:40:23.935Z,27.50
2018-08-16T19:42:14.063Z,27.53
2018-08-16T19:43:53.497Z,27.49
2018-08-16T19:45:32.628Z,27.36
2018-08-16T19:47:18.200Z,27.21
2018-08-16T19:48:54.977Z,27.12
2018-08-16T19:50:32.953Z,27.03
2018-08-16T19:52:20.238Z,26.99
2018-08-16T19:53:56.797Z,26.87
2018-08-16T19:55:34.333Z,26.93
2018-08-16T19:57:11.325Z,26.81
2018-08-16T19:59:05.649Z,26.90
2018-08-16T20:00:43.506Z,27.00
2018-08-16T20:02:21.229Z,27.00
2018-08-16T20:03:59.804Z,26.97
2018-08-16T20:05:35.835Z,26.95
2018-08-16T20:07:14.350Z,26.86
2018-08-16T20:08:51.882Z,26.71
2018-08-16T20:10:34.324Z,26.52
2018-08-16T20:12:13.364Z,26.31
2018-08-16T20:13:56.572Z,26.20
2018-08-16T20:15:36.500Z,25.85
2018-08-16T20:17:16.820Z,25.80
2018-08-16T20:20:26.768Z,26.13
2018-08-16T20:22:02.727Z,25.95
2018-08-16T20:23:50.079Z,26.21
2018-08-16T20:25:30.273Z,26.14
2018-08-16T20:27:07.919Z,26.24
2018-08-16T20:28:44.625Z,26.19
2018-08-16T20:30:23.913Z,26.35
2018-08-16T20:32:02.390Z,26.50
2018-08-16T20:33:43.999Z,26.62
2018-08-16T20:35:32.762Z,26.63
2018-08-16T20:37:10.153Z,26.44
2018-08-16T20:38:45.809Z,26.21
2018-08-16T20:40:21.558Z,26.12
2018-08-16T20:41:58.418Z,26.12
2018-08-16T20:43:35.837Z,26.04
2018-08-16T20:45:12.185Z,25.98
2018-08-16T20:46:51.799Z,25.82
2018-08-16T20:48:34.011Z,25.68
2018-08-16T20:50:12.676Z,25.54
2018-08-16T20:51:51.238Z,25.50
2018-08-16T20:53:28.806Z,25.42
2018-08-16T20:55:06.176Z,25.44
2018-08-16T20:56:43.745Z,25.47
2018-08-16T21:00:09.665Z,25.51
2018-08-16T21:01:48.021Z,25.67
2018-08-16T21:03:35.028Z,25.35
2018-08-16T21:05:19.702Z,25.43
2018-08-16T21:07:09.787Z,25.47
2018-08-16T21:08:56.128Z,25.48
2018-08-16T21:10:46.025Z,25.36
2018-08-16T21:12:24.956Z,25.28
2018-08-16T21:14:08.807Z,25.05
2018-08-16T21:17:52.904Z,25.10
2018-08-16T21:19:29.469Z,25.35
2018-08-16T21:21:06.653Z,25.41
2018-08-16T21:22:42.986Z,25.42
2018-08-16T21:24:18.713Z,25.28
2018-08-16T21:27:36.946Z,25.58
2018-08-16T21:29:14.383Z,25.35
2018-08-16T21:30:52.564Z,25.19
2018-08-16T21:32:28.667Z,25.19
2018-08-16T21:34:07.618Z,25.20
2018-08-16T21:35:54.833Z,25.36
2018-08-16T21:37:36.985Z,25.48
2018-08-16T21:39:22.375Z,25.42
2018-08-16T21:41:06.423Z,25.39
2018-08-16T21:42:42.397Z,25.32
2018-08-16T21:44:19.442Z,25.21